createdAt,value
2019-04-16T00:01:26.532Z,101873.41
2019-04-16T00:03:58.083Z,101869.73
2019-04-16T00:06:35.659Z,101867.09
2019-04-16T00:09:11.271Z,101864.77
2019-04-16T00:11:42.837Z,101866.06
2019-04-16T00:14:20.482Z,101857.61
2019-04-16T00:16:50.491Z,101850.31
2019-04-16T00:19:20.449Z,101852.64
2019-04-16T00:22:04.020Z,101849.66
2019-04-16T00:24:35.554Z,101847.11
2019-04-16T00:27:05.622Z,101847.15
2019-04-16T00:29:35.589Z,101845.48
2019-04-16T00:32:09.177Z,101842.27
2019-04-16T00:34:38.857Z,101834.88
2019-04-16T00:37:08.843Z,101842.92
2019-04-16T00:39:38.817Z,101844.13
2019-04-16T00:42:08.931Z,101841.48
2019-04-16T00:44:38.917Z,101840.17
2019-04-16T00:47:08.918Z,101838.83
2019-04-16T00:49:38.891Z,101837.80
2019-04-16T00:52:08.888Z,101841.13
2019-04-16T00:54:39.316Z,101838.84
2019-04-16T00:57:10.551Z,101832.29
2019-04-16T00:59:40.529Z,101831.46
2019-04-16T01:02:10.607Z,101824.75
2019-04-16T01:04:40.582Z,101824.23
2019-04-16T01:07:10.526Z,101829.28
2019-04-16T01:09:40.797Z,101829.19
2019-04-16T01:12:10.737Z,101829.28
2019-04-16T01:14:41.014Z,101826.17
2019-04-16T01:17:10.960Z,101828.27
2019-04-16T01:19:41.814Z,101828.16
2019-04-16T01:22:15.733Z,101829.87
2019-04-16T01:24:43.603Z,101827.27
2019-04-16T01:27:15.305Z,101829.39
2019-04-16T01:29:45.384Z,101832.89
2019-04-16T01:32:33.134Z,101832.27
2019-04-16T01:35:04.670Z,101823.93
2019-04-16T01:37:36.173Z,101829.87
2019-04-16T01:40:09.235Z,101825.86
2019-04-16T01:42:39.229Z,101833.92
2019-04-16T01:45:09.197Z,101834.98
2019-04-16T01:47:39.130Z,101829.79
2019-04-16T01:50:12.970Z,101838.47
2019-04-16T01:52:40.838Z,101830.20
2019-04-16T01:55:11.148Z,101830.11
2019-04-16T01:57:41.040Z,101824.33
2019-04-16T02:00:12.327Z,101825.39
2019-04-16T02:02:43.468Z,101829.34
2019-04-16T02:05:14.030Z,101823.98
2019-04-16T02:07:44.152Z,101822.05
2019-04-16T02:10:14.419Z,101823.29
2019-04-16T02:12:44.556Z,101830.97
2019-04-16T02:15:14.900Z,101826.67
2019-04-16T02:17:44.833Z,101826.95
2019-04-16T02:20:14.796Z,101825.19
2019-04-16T02:22:45.265Z,101825.96
2019-04-16T02:25:19.015Z,101823.05
2019-04-16T02:27:47.405Z,101825.19
2019-04-16T02:30:17.398Z,101826.08
2019-04-16T02:32:47.416Z,101829.56
2019-04-16T02:35:18.277Z,101830.34
2019-04-16T02:37:48.233Z,101823.83
2019-04-16T02:40:19.003Z,101831.62
2019-04-16T02:42:49.261Z,101828.97
2019-04-16T02:45:23.147Z,101829.91
2019-04-16T02:47:50.979Z,101828.97
2019-04-16T02:50:30.638Z,101832.63
2019-04-16T02:52:58.533Z,101825.67
2019-04-16T02:55:30.211Z,101827.55
2019-04-16T02:58:02.359Z,101825.23
2019-04-16T03:00:50.852Z,101826.12
2019-04-16T03:03:24.923Z,101822.09
2019-04-16T03:05:55.611Z,101822.09
2019-04-16T03:08:25.582Z,101820.41
2019-04-16T03:10:55.557Z,101825.65
2019-04-16T03:13:26.325Z,101825.52
2019-04-16T03:16:07.708Z,101823.56
2019-04-16T03:18:39.356Z,101824.03
2019-04-16T03:21:09.322Z,101818.71
2019-04-16T03:23:39.369Z,101824.32
2019-04-16T03:26:09.374Z,101816.34
2019-04-16T03:28:39.342Z,101825.45
2019-04-16T03:31:14.865Z,101824.00
2019-04-16T03:33:48.610Z,101827.00
2019-04-16T03:36:13.766Z,101826.34
2019-04-16T03:38:43.757Z,101828.80
2019-04-16T03:41:13.758Z,101829.93
2019-04-16T03:43:43.728Z,101830.34
2019-04-16T03:46:14.197Z,101832.11
2019-04-16T03:48:44.400Z,101829.30
2019-04-16T03:51:14.393Z,101831.53
2019-04-16T03:53:46.449Z,101828.47
2019-04-16T03:56:16.026Z,101828.83
2019-04-16T03:58:45.996Z,101834.00
2019-04-16T04:01:15.973Z,101832.11
2019-04-16T04:03:45.961Z,101836.14
2019-04-16T04:06:15.939Z,101835.37
2019-04-16T04:08:48.296Z,101841.86
2019-04-16T04:11:17.574Z,101834.02
2019-04-16T04:13:50.053Z,101838.71
2019-04-16T04:16:19.425Z,101837.61
2019-04-16T04:18:49.403Z,101840.61
2019-04-16T04:21:22.309Z,101840.31
2019-04-16T04:23:51.071Z,101844.20
2019-04-16T04:26:21.163Z,101844.25
2019-04-16T04:28:51.523Z,101845.25
2019-04-16T04:31:22.689Z,101849.80
2019-04-16T04:33:52.766Z,101843.58
2019-04-16T04:36:26.435Z,101848.34
2019-04-16T04:38:54.442Z,101849.98
2019-04-16T04:41:24.452Z,101857.31
2019-04-16T04:43:54.432Z,101855.79
2019-04-16T04:46:24.374Z,101857.80
2019-04-16T04:48:55.611Z,101864.09
2019-04-16T04:51:25.978Z,101861.98
2019-04-16T04:53:55.952Z,101869.48
2019-04-16T04:56:27.981Z,101863.27
2019-04-16T04:58:57.587Z,101870.31
2019-04-16T05:01:27.530Z,101868.01
2019-04-16T05:04:02.047Z,101872.55
2019-04-16T05:06:38.809Z,101869.23
2019-04-16T05:09:08.778Z,101867.52
2019-04-16T05:11:38.721Z,101869.33
2019-04-16T05:14:08.710Z,101871.48
2019-04-16T05:16:38.732Z,101878.20
2019-04-16T05:19:13.626Z,101874.34
2019-04-16T05:21:40.362Z,101874.84
2019-04-16T05:24:10.338Z,101883.99
2019-04-16T05:26:40.286Z,101882.84
2019-04-16T05:29:17.514Z,101881.55
2019-04-16T05:31:44.703Z,101887.84
2019-04-16T05:34:17.635Z,101885.54
2019-04-16T05:36:47.938Z,101892.95
2019-04-16T05:39:18.142Z,101889.59
2019-04-16T05:41:50.484Z,101894.18
2019-04-16T05:44:19.898Z,101891.68
2019-04-16T05:46:49.873Z,101895.42
2019-04-16T05:49:24.636Z,101899.69
2019-04-16T05:51:51.611Z,101897.63
2019-04-16T05:54:23.161Z,101902.92
2019-04-16T05:56:57.539Z,101904.68
2019-04-16T05:59:27.514Z,101901.66
2019-04-16T06:01:59.050Z,101908.44
2019-04-16T06:04:29.045Z,101914.92
2019-04-16T06:07:02.864Z,101917.06
2019-04-16T06:09:34.014Z,101910.12
2019-04-16T06:12:05.954Z,101914.38
2019-04-16T06:14:37.599Z,101917.26
2019-04-16T06:17:33.225Z,101912.80
2019-04-16T06:20:19.021Z,101908.20
2019-04-16T06:23:02.751Z,101909.40
2019-04-16T06:25:31.658Z,101908.61
2019-04-16T06:28:25.864Z,101909.66
2019-04-16T06:31:10.210Z,101910.80
2019-04-16T06:33:40.699Z,101910.72
2019-04-16T06:36:24.342Z,101910.71
2019-04-16T06:38:58.953Z,101915.64
2019-04-16T06:41:41.424Z,101911.55
2019-04-16T06:44:06.909Z,101913.70
2019-04-16T06:46:41.288Z,101906.23
2019-04-16T06:49:27.914Z,101913.16
2019-04-16T06:52:16.049Z,101914.58
2019-04-16T06:54:57.117Z,101908.60
2019-04-16T06:57:47.007Z,101917.21
2019-04-16T07:00:27.799Z,101912.75
2019-04-16T07:03:15.888Z,101914.95
2019-04-16T07:06:03.947Z,101914.33
2019-04-16T07:08:38.177Z,101921.11
2019-04-16T07:11:10.707Z,101918.61
2019-04-16T07:13:42.238Z,101914.77
2019-04-16T07:16:15.135Z,101920.81
2019-04-16T07:19:03.693Z,101918.78
2019-04-16T07:21:36.419Z,101915.77
2019-04-16T07:24:12.498Z,101916.66
2019-04-16T07:26:56.644Z,101916.67
2019-04-16T07:29:31.666Z,101915.80
2019-04-16T07:32:20.592Z,101917.12
2019-04-16T07:35:21.959Z,101922.80
2019-04-16T07:37:56.765Z,101918.86
2019-04-16T07:40:59.509Z,101927.17
2019-04-16T07:44:10.758Z,101926.75
2019-04-16T07:47:12.420Z,101930.25
2019-04-16T07:49:50.141Z,101931.57
2019-04-16T07:52:27.695Z,101928.95
2019-04-16T07:55:17.996Z,101932.88
2019-04-16T07:58:07.026Z,101933.30
2019-04-16T08:00:44.941Z,101941.66
2019-04-16T08:03:15.039Z,101941.66
2019-04-16T08:05:46.462Z,101945.59
2019-04-16T08:08:16.740Z,101941.63
2019-04-16T08:10:53.050Z,101942.08
2019-04-16T08:13:23.824Z,101942.95
2019-04-16T08:15:57.548Z,101941.58
2019-04-16T08:18:53.211Z,101941.50
2019-04-16T08:21:44.668Z,101937.50
2019-04-16T08:24:16.371Z,101942.28
2019-04-16T08:26:46.353Z,101935.59
2019-04-16T08:29:34.041Z,101937.76
2019-04-16T08:32:13.102Z,101936.37
2019-04-16T08:34:44.413Z,101938.01
2019-04-16T08:37:32.105Z,101923.62
2019-04-16T08:40:20.047Z,101926.66
2019-04-16T08:42:57.001Z,101927.41
2019-04-16T08:45:26.434Z,101933.82
2019-04-16T08:48:18.720Z,101930.72
2019-04-16T08:51:05.777Z,101928.53
2019-04-16T08:53:54.764Z,101926.54
2019-04-16T08:56:24.745Z,101922.16
2019-04-16T08:58:58.586Z,101920.83
2019-04-16T09:01:45.842Z,101918.13
2019-04-16T09:04:18.855Z,101921.65
2019-04-16T09:06:48.843Z,101916.06
2019-04-16T09:09:28.882Z,101925.53
2019-04-16T09:12:07.741Z,101912.03
2019-04-16T09:14:55.918Z,101914.23
2019-04-16T09:17:29.114Z,101912.69
2019-04-16T09:20:05.663Z,101912.92
2019-04-16T09:22:48.281Z,101918.48
2019-04-16T09:25:23.804Z,101923.02
2019-04-16T09:28:23.806Z,101922.47
2019-04-16T09:31:10.957Z,101917.00
2019-04-16T09:34:10.040Z,101912.53
2019-04-16T09:37:01.837Z,101924.13
2019-04-16T09:40:16.506Z,101915.20
2019-04-16T09:42:59.059Z,101917.30
2019-04-16T09:45:51.968Z,101915.19
2019-04-16T09:48:34.453Z,101920.38
2019-04-16T09:51:21.513Z,101924.93
2019-04-16T09:53:51.676Z,101914.73
2019-04-16T09:56:30.004Z,101910.77
2019-04-16T09:59:10.939Z,101908.13
2019-04-16T10:01:45.500Z,101917.25
2019-04-16T10:04:19.805Z,101912.91
2019-04-16T10:06:49.963Z,101900.05
2019-04-16T10:09:23.743Z,101906.67
2019-04-16T10:12:15.240Z,101902.67
2019-04-16T10:14:49.359Z,101895.27
2019-04-16T10:17:28.414Z,101902.52
2019-04-16T10:19:58.395Z,101900.48
2019-04-16T10:22:36.244Z,101899.59
2019-04-16T10:25:23.261Z,101892.57
2019-04-16T10:27:54.860Z,101885.28
2019-04-16T10:30:29.786Z,101894.58
2019-04-16T10:33:02.196Z,101898.41
2019-04-16T10:35:38.216Z,101891.89
2019-04-16T10:38:31.973Z,101894.78
2019-04-16T10:41:07.960Z,101895.05
2019-04-16T10:43:44.723Z,101880.52
2019-04-16T10:46:33.583Z,101870.12
2019-04-16T10:49:30.670Z,101882.92
2019-04-16T10:52:22.299Z,101875.83
2019-04-16T10:55:12.935Z,101883.77
2019-04-16T10:57:50.819Z,101886.59
2019-04-16T11:00:46.206Z,101888.69
2019-04-16T11:03:42.289Z,101885.68
2019-04-16T11:06:17.107Z,101883.69
2019-04-16T11:09:10.494Z,101878.49
2019-04-16T11:11:43.533Z,101874.56
2019-04-16T11:14:16.368Z,101884.09
2019-04-16T11:17:05.973Z,101880.23
2019-04-16T11:19:59.931Z,101877.50
2019-04-16T11:22:28.852Z,101873.99
2019-04-16T11:24:58.839Z,101869.92
2019-04-16T11:27:49.815Z,101865.98
2019-04-16T11:30:40.528Z,101868.63
2019-04-16T11:33:29.565Z,101867.80
2019-04-16T11:35:59.651Z,101868.24
2019-04-16T11:38:47.808Z,101868.61
2019-04-16T11:41:36.394Z,101877.36
2019-04-16T11:44:24.903Z,101866.77
2019-04-16T11:47:20.423Z,101863.89
2019-04-16T11:49:53.513Z,101866.86
2019-04-16T11:52:29.708Z,101867.69
2019-04-16T11:55:02.892Z,101863.96
2019-04-16T11:57:43.673Z,101870.68
2019-04-16T12:00:36.631Z,101874.27
2019-04-16T12:03:08.336Z,101863.67
2019-04-16T12:05:51.840Z,101859.98
2019-04-16T12:08:41.172Z,101858.94
2019-04-16T12:11:43.760Z,101857.57
2019-04-16T12:14:30.699Z,101866.28
2019-04-16T12:17:17.675Z,101860.09
2019-04-16T12:20:04.169Z,101853.59
2019-04-16T12:23:01.906Z,101850.66
2019-04-16T12:25:36.294Z,101840.55
2019-04-16T12:28:31.472Z,101843.31
2019-04-16T12:31:26.616Z,101840.05
2019-04-16T12:34:07.717Z,101839.59
2019-04-16T12:36:50.862Z,101837.00
2019-04-16T12:39:24.724Z,101840.11
2019-04-16T12:41:59.743Z,101833.52
2019-04-16T12:44:48.363Z,101837.67
2019-04-16T12:47:46.432Z,101843.79
2019-04-16T12:50:49.407Z,101829.52
2019-04-16T12:53:22.671Z,101830.42
2019-04-16T12:56:12.512Z,101825.55
2019-04-16T12:59:22.119Z,101828.50
2019-04-16T13:02:24.095Z,101832.97
2019-04-16T13:05:13.132Z,101821.93
2019-04-16T13:07:50.316Z,101825.00
2019-04-16T13:10:39.462Z,101822.88
2019-04-16T13:13:16.976Z,101819.43
2019-04-16T13:15:51.195Z,101824.65
2019-04-16T13:18:46.403Z,101821.58
2019-04-16T13:21:20.825Z,101814.85
2019-04-16T13:24:01.464Z,101821.20
2019-04-16T13:26:35.651Z,101827.85
2019-04-16T13:29:07.301Z,101820.33
2019-04-16T13:31:38.967Z,101814.85
2019-04-16T13:34:18.345Z,101805.70
2019-04-16T13:36:51.913Z,101796.48
2019-04-16T13:39:26.800Z,101812.16
2019-04-16T13:41:58.218Z,101802.08
2019-04-16T13:44:46.535Z,101812.02
2019-04-16T13:47:22.476Z,101801.23
2019-04-16T13:49:54.085Z,101801.58
2019-04-16T13:52:36.833Z,101801.03
2019-04-16T13:55:18.062Z,101793.61
2019-04-16T13:58:04.480Z,101806.08
2019-04-16T14:00:37.141Z,101798.48
2019-04-16T14:03:08.865Z,101798.03
2019-04-16T14:05:42.691Z,101793.87
2019-04-16T14:08:14.659Z,101796.83
2019-04-16T14:10:44.691Z,101793.05
2019-04-16T14:13:17.319Z,101800.17
2019-04-16T14:15:47.274Z,101800.41
2019-04-16T14:18:17.252Z,101793.16
2019-04-16T14:20:47.256Z,101788.20
2019-04-16T14:23:23.371Z,101783.88
2019-04-16T14:25:53.392Z,101794.38
2019-04-16T14:28:23.490Z,101788.43
2019-04-16T14:30:53.511Z,101791.81
2019-04-16T14:33:25.146Z,101790.58
2019-04-16T14:35:55.132Z,101785.44
2019-04-16T14:38:30.003Z,101792.52
2019-04-16T14:40:59.964Z,101788.43
2019-04-16T14:43:31.644Z,101784.14
2019-04-16T14:46:01.873Z,101782.80
2019-04-16T14:48:31.992Z,101792.78
2019-04-16T14:51:02.561Z,101787.75
2019-04-16T14:53:34.294Z,101788.97
2019-04-16T14:56:06.451Z,101791.16
2019-04-16T14:58:44.342Z,101781.26
2019-04-16T15:01:20.132Z,101787.77
2019-04-16T15:04:00.665Z,101781.86
2019-04-16T15:06:41.354Z,101786.77
2019-04-16T15:09:15.990Z,101787.46
2019-04-16T15:12:07.444Z,101791.30
2019-04-16T15:14:40.021Z,101786.40
2019-04-16T15:17:14.566Z,101781.05
2019-04-16T15:20:06.984Z,101788.17
2019-04-16T15:22:38.524Z,101782.16
2019-04-16T15:25:28.271Z,101783.48
2019-04-16T15:28:05.852Z,101786.42
2019-04-16T15:30:40.393Z,101788.23
2019-04-16T15:33:21.244Z,101788.34
2019-04-16T15:36:01.821Z,101788.87
2019-04-16T15:38:39.667Z,101796.91
2019-04-16T15:41:20.577Z,101788.22
2019-04-16T15:44:08.683Z,101788.16
2019-04-16T15:46:49.515Z,101786.45
2019-04-16T15:49:24.154Z,101783.80
2019-04-16T15:52:01.758Z,101788.77
2019-04-16T15:54:42.122Z,101785.70
2019-04-16T16:04:37.078Z,101790.25
2019-04-16T16:06:23.399Z,101789.84
2019-04-16T16:09:29.251Z,101790.07
2019-04-16T16:11:58.713Z,101792.72
2019-04-16T16:14:33.042Z,101798.56
2019-04-16T16:17:04.187Z,101795.95
2019-04-16T16:19:46.699Z,101793.28
2019-04-16T16:23:32.835Z,101800.98
2019-04-16T16:25:42.148Z,101793.21
2019-04-16T16:31:40.380Z,101792.87
2019-04-16T16:34:17.937Z,101797.81
2019-04-16T16:36:48.450Z,101803.19
2019-04-16T16:37:54.675Z,101795.47
2019-04-16T16:39:24.883Z,101804.55
2019-04-16T16:44:43.182Z,101809.50
2019-04-16T16:47:32.852Z,101820.16
2019-04-16T16:50:07.516Z,101815.34
2019-04-16T16:53:07.171Z,101815.44
2019-04-16T16:55:58.301Z,101813.30
2019-04-16T16:58:47.165Z,101808.06
2019-04-16T17:01:37.160Z,101808.96
2019-04-16T17:04:15.935Z,101810.35
2019-04-16T17:06:57.641Z,101807.80
2019-04-16T17:09:33.477Z,101817.58
2019-04-16T17:14:01.314Z,101821.58
2019-04-16T17:14:55.879Z,101820.30
2019-04-16T17:17:26.898Z,101825.69
2019-04-16T17:19:58.265Z,101822.69
2019-04-16T17:22:36.340Z,101831.13
2019-04-16T17:25:10.501Z,101834.76
2019-04-16T17:27:51.537Z,101833.91
2019-04-16T17:30:19.070Z,101838.39
2019-04-16T17:33:02.324Z,101842.45
2019-04-16T17:46:00.869Z,101852.59
2019-04-16T17:48:39.019Z,101848.28
2019-04-16T17:51:12.580Z,101848.41
2019-04-16T17:53:47.637Z,101851.11
2019-04-16T17:56:26.700Z,101856.92
2019-04-16T17:59:13.512Z,101861.37
2019-04-16T18:02:05.452Z,101859.68
2019-04-16T18:04:38.374Z,101860.67
2019-04-16T18:07:28.125Z,101865.14
2019-04-16T18:10:05.239Z,101861.25
2019-04-16T18:12:39.561Z,101867.87
2019-04-16T18:15:32.014Z,101869.67
2019-04-16T18:18:09.449Z,101872.31
2019-04-16T18:21:07.008Z,101871.94
2019-04-16T18:23:45.576Z,101877.70
2019-04-16T18:26:19.159Z,101880.44
2019-04-16T18:29:04.265Z,101890.19
2019-04-16T18:31:47.129Z,101887.60
2019-04-16T18:34:23.586Z,101888.13
2019-04-16T18:37:13.179Z,101892.98
2019-04-16T18:39:48.888Z,101900.05
2019-04-16T18:42:39.289Z,101899.65
2019-04-16T18:45:15.893Z,101903.66
2019-04-16T18:48:02.853Z,101909.00
2019-04-16T18:50:28.177Z,101909.91
2019-04-16T18:53:00.202Z,101914.75
2019-04-16T18:55:31.054Z,101912.60
2019-04-16T18:58:03.467Z,101916.57
2019-04-16T19:00:43.895Z,101917.02
2019-04-16T19:03:16.392Z,101922.75
2019-04-16T19:05:47.388Z,101925.84
2019-04-16T19:08:18.154Z,101930.66
2019-04-16T19:10:49.871Z,101934.15
2019-04-16T19:13:21.504Z,101938.55
2019-04-16T19:15:54.182Z,101936.36
2019-04-16T19:18:26.651Z,101935.07
2019-04-16T19:20:57.303Z,101940.75
2019-04-16T19:23:28.792Z,101944.27
2019-04-16T19:25:59.408Z,101939.89
2019-04-16T19:28:31.219Z,101945.58
2019-04-16T19:31:05.324Z,101948.23
2019-04-16T19:33:38.280Z,101948.23
2019-04-16T19:36:08.377Z,101952.16
2019-04-16T19:38:40.771Z,101953.42
2019-04-16T19:41:14.117Z,101955.16
2019-04-16T19:43:45.903Z,101956.45
2019-04-16T19:46:16.895Z,101961.70
2019-04-16T19:48:47.714Z,101962.57
2019-04-16T19:51:20.631Z,101964.34
2019-04-16T19:53:53.559Z,101970.88
2019-04-16T19:56:24.998Z,101972.20
2019-04-16T19:59:02.746Z,101973.48
2019-04-16T20:01:33.036Z,101970.86
2019-04-16T20:04:09.721Z,101972.56
2019-04-16T20:06:39.115Z,101976.46
2019-04-16T20:09:10.317Z,101980.77
2019-04-16T20:11:41.296Z,101979.48
2019-04-16T20:14:12.519Z,101985.54
2019-04-16T20:16:44.903Z,101983.33
2019-04-16T20:19:16.247Z,101979.39
2019-04-16T20:21:49.140Z,101980.25
2019-04-16T20:24:21.509Z,101984.64
2019-04-16T20:26:55.535Z,101981.08
2019-04-16T20:29:29.517Z,101985.73
2019-04-16T20:32:01.045Z,101997.39
2019-04-16T20:34:34.760Z,101996.06
2019-04-16T20:37:06.394Z,101997.88
2019-04-16T20:39:40.919Z,101996.20
2019-04-16T20:42:12.558Z,101990.08
2019-04-16T20:44:47.922Z,101994.89
2019-04-16T20:47:20.028Z,101998.79
2019-04-16T20:49:52.445Z,101998.36
2019-04-16T20:52:24.886Z,102008.84
2019-04-16T20:54:59.370Z,102019.36
2019-04-16T20:57:33.686Z,102014.52
2019-04-16T21:00:11.036Z,102014.02
2019-04-16T21:02:40.160Z,102021.42
2019-04-16T21:05:22.017Z,102017.91
2019-04-16T21:07:43.920Z,102021.41
2019-04-16T21:10:13.707Z,102023.20
2019-04-16T21:12:45.326Z,102025.83
2019-04-16T21:15:15.461Z,102023.20
2019-04-16T21:17:45.408Z,102026.67
2019-04-16T21:20:19.155Z,102032.27
2019-04-16T21:22:47.132Z,102035.30
2019-04-16T21:25:17.122Z,102036.20
2019-04-16T21:27:51.571Z,102034.88
2019-04-16T21:30:21.590Z,102029.63
2019-04-16T21:32:53.148Z,102034.37
2019-04-16T21:35:31.964Z,102037.34
2019-04-16T21:38:03.981Z,102034.67
2019-04-16T21:40:33.995Z,102033.34
2019-04-16T21:43:07.741Z,102034.58
2019-04-16T21:45:35.754Z,102034.88
2019-04-16T21:48:05.905Z,102038.26
2019-04-16T21:50:35.913Z,102030.83
2019-04-16T21:53:05.885Z,102039.06
2019-04-16T21:55:36.200Z,102040.78
2019-04-16T21:58:06.750Z,102044.72
2019-04-16T22:00:38.430Z,102043.41
2019-04-16T22:03:18.982Z,102040.73
2019-04-16T22:05:49.064Z,102043.35
2019-04-16T22:08:19.088Z,102050.70
2019-04-16T22:10:49.036Z,102047.13
2019-04-16T22:13:20.060Z,102051.34
2019-04-16T22:15:50.198Z,102062.03
2019-04-16T22:18:20.176Z,102056.27
2019-04-16T22:20:50.112Z,102050.03
2019-04-16T22:23:20.114Z,102046.02
2019-04-16T22:25:50.091Z,102052.16
2019-04-16T22:28:20.091Z,102056.54
2019-04-16T22:30:51.485Z,102055.14
2019-04-16T22:33:21.714Z,102056.63
2019-04-16T22:35:51.692Z,102060.13
2019-04-16T22:38:21.668Z,102059.28
2019-04-16T22:41:02.828Z,102064.02
2019-04-16T22:43:46.675Z,102065.91
2019-04-16T22:46:18.219Z,102061.92
2019-04-16T22:48:55.390Z,102060.55
2019-04-16T22:51:25.973Z,102061.92
2019-04-16T22:53:56.235Z,102059.84
2019-04-16T22:56:31.058Z,102056.78
2019-04-16T22:59:01.040Z,102060.67
2019-04-16T23:01:45.697Z,102055.09
2019-04-16T23:04:15.859Z,102051.70
2019-04-16T23:06:45.930Z,102052.64
2019-04-16T23:09:17.182Z,102051.41
2019-04-16T23:11:48.019Z,102048.36
2019-04-16T23:14:18.087Z,102046.69
2019-04-16T23:16:48.176Z,102045.39
2019-04-16T23:19:20.558Z,102047.48
2019-04-16T23:21:50.058Z,102047.56
2019-04-16T23:24:23.017Z,102049.77
2019-04-16T23:26:52.016Z,102051.59
2019-04-16T23:29:22.106Z,102051.11
2019-04-16T23:31:55.068Z,102049.75
2019-04-16T23:34:24.004Z,102041.05
2019-04-16T23:36:54.081Z,102041.95
2019-04-16T23:39:24.177Z,102044.17
2019-04-16T23:41:54.153Z,102038.88
2019-04-16T23:44:31.818Z,102032.86
2019-04-16T23:47:03.365Z,102037.26
2019-04-16T23:49:40.894Z,102033.31
2019-04-16T23:52:12.435Z,102038.12
2019-04-16T23:54:47.018Z,102036.80
2019-04-16T23:57:21.594Z,102033.45
